createdAt,value
2023-04-28T00:04:37.932Z,100573.22
2023-04-28T00:09:42.302Z,100564.38
2023-04-28T00:14:45.328Z,100564.75
2023-04-28T00:19:48.059Z,100557.13
2023-04-28T00:24:52.210Z,100559.06
2023-04-28T00:29:55.157Z,100556.28
2023-04-28T00:34:58.396Z,100544.19
2023-04-28T00:40:02.552Z,100528.34
2023-04-28T00:45:07.299Z,100532.06
2023-04-28T00:50:11.511Z,100531.69
2023-04-28T00:55:16.018Z,100521.16
2023-04-28T01:00:19.782Z,100519.66
2023-04-28T01:05:23.285Z,100514.41
2023-04-28T01:10:27.612Z,100508.00
2023-04-28T01:15:30.817Z,100506.59
2023-04-28T01:20:33.616Z,100503.19
2023-04-28T01:25:38.188Z,100503.50
2023-04-28T01:30:41.293Z,100492.25
2023-04-28T01:35:44.100Z,100483.69
2023-04-28T01:40:48.225Z,100474.03
2023-04-28T01:45:51.370Z,100479.84
2023-04-28T01:50:54.201Z,100481.84
2023-04-28T01:55:58.482Z,100484.34
2023-04-28T02:01:01.459Z,100470.50
2023-04-28T02:06:04.972Z,100470.50
2023-04-28T02:11:09.107Z,100466.28
2023-04-28T02:16:12.021Z,100463.84
2023-04-28T02:21:14.817Z,100451.41
2023-04-28T02:26:18.953Z,100452.50
2023-04-28T02:31:21.776Z,100438.88
2023-04-28T02:36:24.827Z,100449.94
2023-04-28T02:41:31.070Z,100431.50
2023-04-28T02:46:33.937Z,100418.09
2023-04-28T02:51:36.792Z,100430.41
2023-04-28T02:56:41.127Z,100421.75
2023-04-28T03:01:44.380Z,100418.22
2023-04-28T03:06:47.399Z,100416.63
2023-04-28T03:11:53.237Z,100422.72
2023-04-28T03:16:56.400Z,100416.63
2023-04-28T03:21:59.289Z,100412.31
2023-04-28T03:27:04.456Z,100397.00
2023-04-28T03:32:08.207Z,100394.22
2023-04-28T03:37:11.204Z,100385.34
2023-04-28T03:42:15.499Z,100369.38
2023-04-28T03:47:27.488Z,100366.13
2023-04-28T03:52:31.032Z,100354.13
2023-04-28T03:57:36.122Z,100346.50
2023-04-28T04:02:39.189Z,100345.34
2023-04-28T04:07:42.136Z,100337.50
2023-04-28T04:12:46.250Z,100327.13
2023-04-28T04:17:49.152Z,100334.09
2023-04-28T04:22:52.002Z,100324.31
2023-04-28T04:27:56.843Z,100321.13
2023-04-28T04:32:59.634Z,100324.56
2023-04-28T04:38:02.618Z,100319.19
2023-04-28T04:43:07.716Z,100318.09
2023-04-28T04:48:18.755Z,100314.69
2023-04-28T04:53:21.972Z,100309.34
2023-04-28T04:58:26.374Z,100306.66
2023-04-28T05:04:01.437Z,100301.31
2023-04-28T05:09:04.699Z,100297.66
2023-04-28T05:14:11.952Z,100300.31
2023-04-28T05:19:17.329Z,100300.31
2023-04-28T05:24:23.480Z,100298.50
2023-04-28T05:29:28.902Z,100302.88
2023-04-28T05:34:31.871Z,100289.50
2023-04-28T05:39:34.755Z,100293.16
2023-04-28T05:44:43.068Z,100281.47
2023-04-28T05:49:46.280Z,100286.81
2023-04-28T05:54:49.195Z,100269.69
2023-04-28T05:59:53.430Z,100268.72
2023-04-28T06:04:57.111Z,100262.41
2023-04-28T06:10:00.744Z,100259.50
2023-04-28T06:15:05.862Z,100264.00
2023-04-28T06:20:10.740Z,100259.50
2023-04-28T06:25:14.112Z,100259.06
2023-04-28T06:30:24.180Z,100258.22
2023-04-28T06:35:27.169Z,100261.75
2023-04-28T06:40:30.607Z,100259.78
2023-04-28T06:45:36.072Z,100249.81
2023-04-28T06:50:38.886Z,100252.41
2023-04-28T06:55:43.504Z,100241.28
2023-04-28T07:00:47.800Z,100242.00
2023-04-28T07:05:50.700Z,100239.00
2023-04-28T07:10:53.464Z,100229.53
2023-04-28T07:15:57.730Z,100231.41
2023-04-28T07:21:00.676Z,100219.97
2023-04-28T07:26:04.307Z,100217.81
2023-04-28T07:31:08.641Z,100221.63
2023-04-28T07:36:11.437Z,100213.28
2023-04-28T07:41:14.246Z,100220.59
2023-04-28T07:46:18.430Z,100216.56
2023-04-28T07:51:21.233Z,100216.94
2023-04-28T07:56:24.426Z,100211.78
2023-04-28T08:01:28.612Z,100217.28
2023-04-28T08:06:31.641Z,100213.22
2023-04-28T08:11:34.961Z,100199.50
2023-04-28T08:16:41.175Z,100204.75
2023-04-28T08:21:44.062Z,100197.31
2023-04-28T08:26:46.857Z,100201.59
2023-04-28T08:31:51.348Z,100203.69
2023-04-28T08:36:54.250Z,100210.59
2023-04-28T08:41:57.822Z,100212.16
2023-04-28T08:47:02.210Z,100212.88
2023-04-28T08:52:05.648Z,100215.78
2023-04-28T08:57:09.973Z,100215.78
2023-04-28T09:02:14.332Z,100206.66
2023-04-28T09:07:17.249Z,100216.75
2023-04-28T09:12:20.371Z,100213.44
2023-04-28T09:17:24.564Z,100214.78
2023-04-28T09:22:29.182Z,100204.59
2023-04-28T09:27:32.007Z,100209.16
2023-04-28T09:32:36.311Z,100210.53
2023-04-28T09:37:39.166Z,100211.53
2023-04-28T09:42:42.415Z,100202.59
2023-04-28T09:47:48.221Z,100206.28
2023-04-28T09:52:57.909Z,100209.38
2023-04-28T09:58:01.035Z,100204.66
2023-04-28T10:03:05.355Z,100202.50
2023-04-28T10:08:08.176Z,100200.38
2023-04-28T10:13:11.380Z,100208.78
2023-04-28T10:18:15.889Z,100200.41
2023-04-28T10:23:31.515Z,100199.56
2023-04-28T10:28:34.583Z,100201.13
2023-04-28T10:33:38.856Z,100186.31
2023-04-28T10:39:12.188Z,100170.50
2023-04-28T10:44:42.457Z,100172.69
2023-04-28T10:50:11.673Z,100168.06
2023-04-28T10:55:32.951Z,100157.25
2023-04-28T11:00:36.128Z,100149.69
2023-04-28T11:05:40.365Z,100143.72
2023-04-28T11:11:17.710Z,100142.88
2023-04-28T11:16:22.959Z,100146.66
2023-04-28T11:21:28.178Z,100157.47
2023-04-28T11:26:31.069Z,100143.22
2023-04-28T11:31:34.044Z,100142.50
2023-04-28T11:36:38.881Z,100133.47
2023-04-28T11:41:42.731Z,100128.63
2023-04-28T11:46:46.150Z,100124.84
2023-04-28T11:51:50.524Z,100123.72
2023-04-28T11:56:53.530Z,100113.38
2023-04-28T12:01:57.221Z,100114.97
2023-04-28T12:07:02.943Z,100114.97
2023-04-28T12:12:06.640Z,100090.59
2023-04-28T12:17:09.507Z,100086.34
2023-04-28T12:22:17.468Z,100085.34
2023-04-28T12:27:22.023Z,100073.53
2023-04-28T12:32:38.574Z,100075.59
2023-04-28T12:37:43.152Z,100065.97
2023-04-28T12:42:45.982Z,100069.03
2023-04-28T12:47:49.029Z,100063.81
2023-04-28T12:52:53.222Z,100057.69
2023-04-28T12:57:56.141Z,100065.13
2023-04-28T13:02:59.213Z,100057.56
2023-04-28T13:08:04.990Z,100054.88
2023-04-28T13:13:07.939Z,100049.66
2023-04-28T13:18:10.768Z,100033.56
2023-04-28T13:23:14.951Z,100017.22
2023-04-28T13:28:18.102Z,100014.66
2023-04-28T13:33:20.854Z,100001.41
2023-04-28T13:38:25.679Z,100001.66
2023-04-28T13:43:28.526Z,100000.16
2023-04-28T13:48:31.347Z,100003.81
2023-04-28T13:53:36.379Z,100004.81
2023-04-28T13:58:39.656Z,99993.50
2023-04-28T14:03:44.411Z,99990.94
2023-04-28T14:08:49.007Z,99985.56
2023-04-28T14:13:51.791Z,99983.88
2023-04-28T14:18:55.608Z,99983.13
2023-04-28T14:23:59.751Z,99978.75
2023-04-28T14:29:02.605Z,99969.84
2023-04-28T14:34:05.485Z,99958.28
2023-04-28T14:39:09.615Z,99961.09
2023-04-28T14:44:12.384Z,99960.22
2023-04-28T14:49:15.196Z,99952.19
2023-04-28T14:54:19.457Z,99941.59
2023-04-28T14:59:22.956Z,99933.69
2023-04-28T15:04:29.893Z,99939.78
2023-04-28T15:09:34.233Z,99931.22
2023-04-28T15:14:37.129Z,99939.38
2023-04-28T15:19:40.021Z,99925.88
2023-04-28T15:24:44.144Z,99922.94
2023-04-28T15:29:46.895Z,99912.34
2023-04-28T15:34:49.811Z,99912.44
2023-04-28T15:39:54.190Z,99906.81
2023-04-28T15:44:57.082Z,99918.28
2023-04-28T15:49:59.885Z,99904.38
2023-04-28T15:55:04.151Z,99899.59
2023-04-28T16:00:09.274Z,99894.00
2023-04-28T16:05:12.153Z,99892.50
2023-04-28T16:10:17.224Z,99887.88
2023-04-28T16:15:20.113Z,99888.38
2023-04-28T16:20:23.055Z,99890.28
2023-04-28T16:25:27.467Z,99884.19
2023-04-28T16:30:30.542Z,99881.25
2023-04-28T16:35:33.451Z,99883.78
2023-04-28T16:40:37.646Z,99886.97
2023-04-28T16:45:40.644Z,99884.63
2023-04-28T16:50:43.579Z,99887.28
2023-04-28T16:55:47.868Z,99874.00
2023-04-28T17:00:50.871Z,99867.53
2023-04-28T17:05:53.696Z,99862.03
2023-04-28T17:10:57.889Z,99860.63
2023-04-28T17:16:01.124Z,99855.03
2023-04-28T17:21:03.988Z,99854.63
2023-04-28T17:26:08.227Z,99848.41
2023-04-28T17:31:11.533Z,99838.16
2023-04-28T17:36:14.413Z,99852.28
2023-04-28T17:41:19.752Z,99849.31
2023-04-28T17:46:22.617Z,99854.44
2023-04-28T17:51:25.552Z,99853.47
2023-04-28T17:56:30.059Z,99864.34
2023-04-28T18:01:33.798Z,99862.34
2023-04-28T18:06:36.660Z,99864.06
2023-04-28T18:11:40.868Z,99865.75
2023-04-28T18:16:43.709Z,99860.13
2023-04-28T18:21:46.535Z,99850.63
2023-04-28T18:26:51.834Z,99858.56
2023-04-28T18:31:55.529Z,99856.44
2023-04-28T18:36:58.431Z,99852.53
2023-04-28T18:42:04.207Z,99854.38
2023-04-28T18:47:07.076Z,99849.69
2023-04-28T18:52:10.029Z,99847.59
2023-04-28T18:57:14.373Z,99855.78
2023-04-28T19:02:17.708Z,99860.16
2023-04-28T19:07:20.711Z,99862.59
2023-04-28T19:12:25.026Z,99859.06
2023-04-28T19:17:28.078Z,99862.59
2023-04-28T19:22:35.976Z,99859.66
2023-04-28T19:27:41.285Z,99855.13
2023-04-28T19:32:44.244Z,99855.13
2023-04-28T19:37:48.334Z,99843.41
2023-04-28T19:42:52.628Z,99843.25
2023-04-28T19:47:55.598Z,99852.75
2023-04-28T19:52:58.553Z,99839.47
2023-04-28T19:58:02.762Z,99838.25
2023-04-28T20:03:05.745Z,99829.19
2023-04-28T20:08:08.727Z,99838.81
2023-04-28T20:13:13.603Z,99822.97
2023-04-28T20:18:16.557Z,99816.47
2023-04-28T20:23:19.458Z,99804.63
2023-04-28T20:28:23.760Z,99810.25
2023-04-28T20:33:26.515Z,99792.91
2023-04-28T20:38:29.589Z,99807.19
2023-04-28T20:43:33.743Z,99820.47
2023-04-28T20:48:36.588Z,99829.38
2023-04-28T20:53:39.623Z,99830.50
2023-04-28T20:58:44.045Z,99836.72
2023-04-28T21:03:46.955Z,99849.50
2023-04-28T21:08:49.809Z,99844.22
2023-04-28T21:13:54.138Z,99837.28
2023-04-28T21:18:57.603Z,99834.31
2023-04-28T21:24:00.539Z,99822.63
2023-04-28T21:29:04.700Z,99828.84
2023-04-28T21:34:07.682Z,99828.09
2023-04-28T21:39:10.497Z,99827.72
2023-04-28T21:44:14.669Z,99832.25
2023-04-28T21:49:18.037Z,99820.50
2023-04-28T21:54:21.089Z,99822.19
2023-04-28T21:59:25.563Z,99799.72
2023-04-28T22:04:28.786Z,99797.03
2023-04-28T22:09:32.532Z,99802.41
2023-04-28T22:14:41.005Z,99807.63
2023-04-28T22:19:44.550Z,99809.34
2023-04-28T22:24:47.371Z,99807.25
2023-04-28T22:29:51.901Z,99806.53
2023-04-28T22:34:55.126Z,99800.19
2023-04-28T22:39:57.885Z,99800.19
2023-04-28T22:45:03.717Z,99801.03
2023-04-28T22:50:08.403Z,99796.66
2023-04-28T22:55:11.835Z,99802.59
2023-04-28T23:00:16.982Z,99801.16
2023-04-28T23:05:19.726Z,99792.97
2023-04-28T23:10:22.501Z,99787.44
2023-04-28T23:15:26.593Z,99791.13
2023-04-28T23:20:29.377Z,99777.69
2023-04-28T23:25:32.270Z,99767.78
2023-04-28T23:30:36.382Z,99770.47
2023-04-28T23:35:39.167Z,99770.47
2023-04-28T23:40:42.146Z,99765.97
2023-04-28T23:45:46.492Z,99764.13
2023-04-28T23:50:50.091Z,99754.06
2023-04-28T23:55:52.836Z,99745.03
